Flight Track Log - Related Links

Times and Time Zones

All times are in EDT time to prevent confusion due to time zone crossing. See the N816BG flight status page for this flight to view local times or setup timezone preferences in your user account.

Time Position Orientation Groundspeed Altitude Reporting Facility
EDT Latitude Longitude Course Direction KTS MPH feet Rate Location/Type
Sat 01:01:53 PM 40.0772 -83.0914 296° West 158 182 1,200  Level Indianapolis Center
Sat 01:03:05 PM 40.1047 -83.1644 296° West 291 335 3,800 2,463 Climbing Indianapolis Center
Sat 01:04:07 PM 40.1842 -83.1583 North 287 330 6,700 3,000 Climbing Indianapolis Center
Sat 01:05:09 PM 40.2617 -83.1431 North 288 331 10,000 3,194 Climbing Indianapolis Center
Sat 01:06:11 PM 40.3361 -83.1344 North 275 316 13,300 2,516 Climbing Indianapolis Center
Sat 01:07:13 PM 40.4197 -83.1744 340° North 266 306 15,200 2,049 Climbing Indianapolis Center
Sat 01:08:14 PM 40.5008 -83.2144 339° North 301 346 17,500 2,000 Climbing Indianapolis Center
Sat 01:09:16 PM 40.5844 -83.2578 339° North 316 364 19,300 1,742 Climbing Indianapolis Center
Sat 01:10:18 PM 40.6692 -83.3022 338° Northwest 323 372 21,100 1,680 Climbing Indianapolis Center
Sat 01:11:21 PM 40.7561 -83.3483 338° Northwest 333 383 22,800 912 Climbing Cleveland Center
Sat 01:12:23 PM 40.8475 -83.3950 339° North 351 404 23,000 387 Climbing Cleveland Center
Sat 01:13:25 PM 40.9692 -83.4592 338° Northwest 389 448 23,600 968 Climbing Cleveland Center
Sat 01:14:27 PM 41.0703 -83.5136 338° Northwest 390 449 25,000 1,403 Climbing Cleveland Center
Sat 01:15:29 PM 41.1731 -83.5686 338° Northwest 383 441 26,500 1,403 Climbing Cleveland Center
Sat 01:16:31 PM 41.2683 -83.6181 339° North 373 429 27,900 726 Climbing Cleveland Center
Sat 01:17:33 PM 41.3653 -83.6686 339° North 370 426 28,000 48 Climbing Cleveland Center
Sat 01:18:35 PM 41.4678 -83.7244 338° Northwest 390 449 28,000  Level Cleveland Center
Sat 01:19:37 PM 41.5753 -83.7836 338° Northwest 410 472 28,000  Level Cleveland Center
Sat 01:20:39 PM 41.6844 -83.8411 339° North 416 479 28,000  Level Cleveland Center
Sat 01:21:41 PM 41.8164 -83.9128 338° Northwest 422 486 28,000  Level Cleveland Center
Sat 01:22:43 PM 41.9278 -83.9736 338° Northwest 425 489 28,000  Level Cleveland Center
Sat 01:23:45 PM 42.0378 -84.0331 338° Northwest 426 490 28,000  Level Cleveland Center
Sat 01:24:47 PM 42.1494 -84.0944 338° Northwest 426 490 28,000  Level Cleveland Center
Sat 01:25:49 PM 42.2606 -84.1550 338° Northwest 427 491 28,000  Level Cleveland Center
Sat 01:26:51 PM 42.3703 -84.2158 338° Northwest 427 491 28,000  Level Cleveland Center
Sat 01:27:54 PM 42.4817 -84.2767 338° Northwest 427 491 28,000  Level Cleveland Center
Sat 01:28:56 PM 42.6142 -84.3508 338° Northwest 427 491 28,000  Level Cleveland Center
Sat 01:29:58 PM 42.7169 -84.4092 337° Northwest 428 493 28,000  Level Cleveland Center
Sat 01:30:59 PM 42.8272 -84.4706 338° Northwest 428 493 28,000  Level Cleveland Center
Sat 01:32:01 PM 42.9367 -84.5317 338° Northwest 428 493 28,000 -677 Level Cleveland Center
Sat 01:33:03 PM 43.0672 -84.6050 338° Northwest 427 491 26,600 -1,500 Descending Cleveland Center
Sat 01:34:05 PM 43.1764 -84.6681 337° Northwest 427 491 24,900 -1,258 Descending Cleveland Center
Sat 01:35:07 PM 43.2817 -84.7267 338° Northwest 414 476 24,000 -432 Descending Cleveland Center
Sat 01:36:10 PM 43.3814 -84.7867 336° Northwest 397 457 24,000  Level Cleveland Center
Sat 01:37:12 PM 43.4803 -84.8525 334° Northwest 397 457 24,000  Level Cleveland Center
Sat 01:38:14 PM 43.5969 -84.9308 334° Northwest 391 450 24,000 -435 Level Cleveland Center
Sat 01:39:16 PM 43.6928 -84.9964 334° Northwest 390 449 23,100 -1,306 Descending Cleveland Center
Sat 01:40:18 PM 43.7889 -85.0633 333° Northwest 390 449 21,300 -1,839 Descending Cleveland Center
Sat 01:41:20 PM 43.8808 -85.1267 334° Northwest 377 434 19,300 -1,790 Descending Cleveland Center
Sat 01:42:22 PM 43.9692 -85.1875 334° Northwest 360 414 17,600 -1,742 Descending Cleveland Center
Sat 01:43:24 PM 44.0550 -85.2444 335° Northwest 348 400 15,700 -1,986 Descending Cleveland Center
Sat 01:44:41 PM 44.1558 -85.3158 333° Northwest 304 350 13,000 -1,813 Descending Minneapolis Center
Sat 01:45:43 PM 44.2217 -85.3594 335° Northwest 275 316 11,500 -1,452 Descending Minneapolis Center
Sat 01:46:45 PM 44.2878 -85.3972 338° Northwest 263 303 10,000 -1,548 Descending Minneapolis Center
Sat 01:47:47 PM 44.3644 -85.4453 336° Northwest 258 297 8,300 -1,452 Descending Minneapolis Center
Sat 01:48:49 PM 44.4261 -85.4906 332° Northwest 256 295 7,000 -1,306 Descending Minneapolis Center
Sat 01:49:51 PM 44.4875 -85.5300 335° Northwest 250 288 5,600 -1,355 Descending Minneapolis Center
Sat 01:50:53 PM 44.5503 -85.5675 337° Northwest 250 288 4,200 -1,403 Descending Minneapolis Center
Sat 01:51:55 PM 44.6128 -85.6022 338° Northwest 249 287 2,700 -1,161 Descending Minneapolis Center
Sat 01:52:57 PM 44.6850 -85.6317 344° North 235 270 1,800 -576 Descending Minneapolis Center
Sat 01:54:00 PM 44.7300 -85.6342 358° North 190 219 1,500 -288 Descending Minneapolis Center
Sat 01:55:02 PM 44.7506 -85.5822 61° Northeast 182 209 1,200 -290 Descending Minneapolis Center

Login

Don't have an account? Register now (free) for customized features, flight alerts, and more!